sensor_id;sensor_type;location;lat;lon;timestamp;P1;durP1;ratioP1;P2;durP2;ratioP2
71606;SDS011;60641;53.556;9.914;2023-04-24T00:00:32;8.60;;;4.00;;
71606;SDS011;60641;53.556;9.914;2023-04-24T00:03:18;7.70;;;4.10;;
71606;SDS011;60641;53.556;9.914;2023-04-24T00:05:47;7.50;;;3.40;;
71606;SDS011;60641;53.556;9.914;2023-04-24T00:08:13;7.60;;;3.50;;
71606;SDS011;60641;53.556;9.914;2023-04-24T00:10:40;8.70;;;3.90;;
71606;SDS011;60641;53.556;9.914;2023-04-24T00:13:07;8.10;;;3.60;;
71606;SDS011;60641;53.556;9.914;2023-04-24T00:15:33;8.20;;;4.10;;
71606;SDS011;60641;53.556;9.914;2023-04-24T00:18:00;7.50;;;3.70;;
71606;SDS011;60641;53.556;9.914;2023-04-24T00:20:27;7.00;;;3.60;;
71606;SDS011;60641;53.556;9.914;2023-04-24T00:22:55;7.70;;;3.80;;
71606;SDS011;60641;53.556;9.914;2023-04-24T00:25:22;7.70;;;4.00;;
71606;SDS011;60641;53.556;9.914;2023-04-24T00:27:48;7.10;;;3.50;;
71606;SDS011;60641;53.556;9.914;2023-04-24T00:30:15;8.80;;;3.70;;
71606;SDS011;60641;53.556;9.914;2023-04-24T00:32:41;7.60;;;3.80;;
71606;SDS011;60641;53.556;9.914;2023-04-24T00:35:08;7.00;;;3.70;;
71606;SDS011;60641;53.556;9.914;2023-04-24T00:37:34;8.00;;;3.80;;
71606;SDS011;60641;53.556;9.914;2023-04-24T00:40:01;7.60;;;3.70;;
71606;SDS011;60641;53.556;9.914;2023-04-24T00:42:27;7.30;;;3.60;;
71606;SDS011;60641;53.556;9.914;2023-04-24T00:44:53;7.40;;;3.90;;
71606;SDS011;60641;53.556;9.914;2023-04-24T00:47:20;7.70;;;3.80;;
71606;SDS011;60641;53.556;9.914;2023-04-24T00:49:48;9.50;;;4.20;;
71606;SDS011;60641;53.556;9.914;2023-04-24T00:52:14;8.20;;;4.00;;
71606;SDS011;60641;53.556;9.914;2023-04-24T00:54:44;9.50;;;4.30;;
71606;SDS011;60641;53.556;9.914;2023-04-24T00:57:13;9.30;;;3.90;;
71606;SDS011;60641;53.556;9.914;2023-04-24T00:59:43;9.00;;;3.80;;
71606;SDS011;60641;53.556;9.914;2023-04-24T01:02:10;7.70;;;4.10;;
71606;SDS011;60641;53.556;9.914;2023-04-24T01:04:38;8.10;;;3.70;;
71606;SDS011;60641;53.556;9.914;2023-04-24T01:07:05;7.50;;;3.10;;
71606;SDS011;60641;53.556;9.914;2023-04-24T01:09:37;7.70;;;3.30;;
71606;SDS011;60641;53.556;9.914;2023-04-24T01:12:04;8.20;;;3.00;;
71606;SDS011;60641;53.556;9.914;2023-04-24T01:14:32;7.50;;;2.90;;
71606;SDS011;60641;53.556;9.914;2023-04-24T01:16:59;6.10;;;2.90;;
71606;SDS011;60641;53.556;9.914;2023-04-24T01:19:26;6.60;;;3.00;;
71606;SDS011;60641;53.556;9.914;2023-04-24T01:21:53;6.40;;;2.50;;
71606;SDS011;60641;53.556;9.914;2023-04-24T01:24:20;6.50;;;2.90;;
71606;SDS011;60641;53.556;9.914;2023-04-24T01:26:47;7.40;;;2.70;;
71606;SDS011;60641;53.556;9.914;2023-04-24T01:29:13;7.40;;;2.70;;
71606;SDS011;60641;53.556;9.914;2023-04-24T01:31:40;6.60;;;2.40;;
71606;SDS011;60641;53.556;9.914;2023-04-24T01:34:07;6.50;;;2.70;;
71606;SDS011;60641;53.556;9.914;2023-04-24T01:36:34;6.50;;;3.00;;
71606;SDS011;60641;53.556;9.914;2023-04-24T01:39:02;6.90;;;2.60;;
71606;SDS011;60641;53.556;9.914;2023-04-24T01:41:30;6.60;;;2.40;;
71606;SDS011;60641;53.556;9.914;2023-04-24T01:43:57;6.90;;;2.40;;
71606;SDS011;60641;53.556;9.914;2023-04-24T01:46:24;6.00;;;2.10;;
71606;SDS011;60641;53.556;9.914;2023-04-24T01:48:51;5.60;;;2.30;;
71606;SDS011;60641;53.556;9.914;2023-04-24T01:51:17;4.90;;;2.10;;
71606;SDS011;60641;53.556;9.914;2023-04-24T01:53:44;5.40;;;2.20;;
71606;SDS011;60641;53.556;9.914;2023-04-24T01:56:11;7.80;;;2.20;;
71606;SDS011;60641;53.556;9.914;2023-04-24T01:58:37;5.50;;;2.00;;
71606;SDS011;60641;53.556;9.914;2023-04-24T02:01:05;6.00;;;2.00;;
71606;SDS011;60641;53.556;9.914;2023-04-24T02:03:32;4.20;;;1.50;;
71606;SDS011;60641;53.556;9.914;2023-04-24T02:05:59;6.30;;;1.90;;
71606;SDS011;60641;53.556;9.914;2023-04-24T02:08:25;5.70;;;1.80;;
71606;SDS011;60641;53.556;9.914;2023-04-24T02:10:52;5.10;;;1.60;;
71606;SDS011;60641;53.556;9.914;2023-04-24T02:13:18;6.10;;;1.70;;
71606;SDS011;60641;53.556;9.914;2023-04-24T02:15:45;2.90;;;1.30;;
71606;SDS011;60641;53.556;9.914;2023-04-24T02:18:12;2.80;;;1.10;;
71606;SDS011;60641;53.556;9.914;2023-04-24T02:20:39;3.10;;;1.10;;
71606;SDS011;60641;53.556;9.914;2023-04-24T02:23:05;3.00;;;1.10;;
71606;SDS011;60641;53.556;9.914;2023-04-24T02:25:32;2.70;;;1.20;;
71606;SDS011;60641;53.556;9.914;2023-04-24T02:27:59;2.60;;;1.10;;
71606;SDS011;60641;53.556;9.914;2023-04-24T02:30:26;3.10;;;1.20;;
71606;SDS011;60641;53.556;9.914;2023-04-24T02:32:52;3.20;;;1.30;;
71606;SDS011;60641;53.556;9.914;2023-04-24T02:35:18;3.90;;;1.20;;
71606;SDS011;60641;53.556;9.914;2023-04-24T02:37:45;4.70;;;1.60;;
71606;SDS011;60641;53.556;9.914;2023-04-24T02:40:11;4.90;;;1.70;;
71606;SDS011;60641;53.556;9.914;2023-04-24T02:42:38;6.40;;;2.30;;
71606;SDS011;60641;53.556;9.914;2023-04-24T02:45:04;6.70;;;2.00;;
71606;SDS011;60641;53.556;9.914;2023-04-24T02:47:32;4.30;;;1.60;;
71606;SDS011;60641;53.556;9.914;2023-04-24T02:49:59;3.90;;;1.40;;
71606;SDS011;60641;53.556;9.914;2023-04-24T02:52:25;5.60;;;1.90;;
71606;SDS011;60641;53.556;9.914;2023-04-24T02:54:52;4.80;;;1.70;;
71606;SDS011;60641;53.556;9.914;2023-04-24T02:57:19;6.00;;;2.00;;
71606;SDS011;60641;53.556;9.914;2023-04-24T02:59:46;5.20;;;1.80;;
71606;SDS011;60641;53.556;9.914;2023-04-24T03:02:12;5.30;;;1.70;;
71606;SDS011;60641;53.556;9.914;2023-04-24T03:04:39;5.20;;;1.70;;
71606;SDS011;60641;53.556;9.914;2023-04-24T03:07:06;5.70;;;1.70;;
71606;SDS011;60641;53.556;9.914;2023-04-24T03:09:33;6.10;;;1.80;;
71606;SDS011;60641;53.556;9.914;2023-04-24T03:11:59;7.10;;;1.70;;
71606;SDS011;60641;53.556;9.914;2023-04-24T03:14:26;5.10;;;1.60;;
71606;SDS011;60641;53.556;9.914;2023-04-24T03:16:53;5.70;;;1.90;;
71606;SDS011;60641;53.556;9.914;2023-04-24T03:19:20;6.50;;;1.60;;
71606;SDS011;60641;53.556;9.914;2023-04-24T03:21:46;6.70;;;1.70;;
71606;SDS011;60641;53.556;9.914;2023-04-24T03:24:13;3.60;;;1.40;;
71606;SDS011;60641;53.556;9.914;2023-04-24T03:26:39;7.00;;;1.80;;
71606;SDS011;60641;53.556;9.914;2023-04-24T03:29:06;7.60;;;2.20;;
71606;SDS011;60641;53.556;9.914;2023-04-24T03:31:33;6.60;;;1.70;;
71606;SDS011;60641;53.556;9.914;2023-04-24T03:33:59;6.50;;;1.50;;
71606;SDS011;60641;53.556;9.914;2023-04-24T03:36:26;4.60;;;1.50;;
71606;SDS011;60641;53.556;9.914;2023-04-24T03:38:52;3.50;;;1.10;;
71606;SDS011;60641;53.556;9.914;2023-04-24T03:41:19;2.80;;;0.90;;
71606;SDS011;60641;53.556;9.914;2023-04-24T03:43:45;2.20;;;0.90;;
71606;SDS011;60641;53.556;9.914;2023-04-24T03:46:12;3.30;;;1.10;;
71606;SDS011;60641;53.556;9.914;2023-04-24T03:48:39;3.00;;;1.10;;
71606;SDS011;60641;53.556;9.914;2023-04-24T03:51:05;4.50;;;1.30;;
71606;SDS011;60641;53.556;9.914;2023-04-24T03:53:32;7.00;;;1.00;;
71606;SDS011;60641;53.556;9.914;2023-04-24T03:55:58;3.30;;;0.90;;
71606;SDS011;60641;53.556;9.914;2023-04-24T03:58:25;2.40;;;0.90;;
71606;SDS011;60641;53.556;9.914;2023-04-24T04:00:52;2.70;;;0.90;;
71606;SDS011;60641;53.556;9.914;2023-04-24T04:03:18;3.00;;;0.80;;
71606;SDS011;60641;53.556;9.914;2023-04-24T04:05:45;2.30;;;0.80;;
71606;SDS011;60641;53.556;9.914;2023-04-24T04:08:11;2.20;;;0.90;;
71606;SDS011;60641;53.556;9.914;2023-04-24T04:10:37;2.80;;;0.90;;
71606;SDS011;60641;53.556;9.914;2023-04-24T04:13:04;3.80;;;0.90;;
71606;SDS011;60641;53.556;9.914;2023-04-24T04:15:32;4.40;;;1.00;;
71606;SDS011;60641;53.556;9.914;2023-04-24T04:17:58;4.20;;;1.30;;
71606;SDS011;60641;53.556;9.914;2023-04-24T04:20:25;3.00;;;1.00;;
71606;SDS011;60641;53.556;9.914;2023-04-24T04:22:52;3.60;;;0.90;;
71606;SDS011;60641;53.556;9.914;2023-04-24T04:25:18;3.60;;;1.00;;
71606;SDS011;60641;53.556;9.914;2023-04-24T04:27:46;3.60;;;1.10;;
71606;SDS011;60641;53.556;9.914;2023-04-24T04:30:14;2.30;;;0.70;;
71606;SDS011;60641;53.556;9.914;2023-04-24T04:32:41;2.20;;;0.90;;
71606;SDS011;60641;53.556;9.914;2023-04-24T04:35:07;3.10;;;0.70;;
71606;SDS011;60641;53.556;9.914;2023-04-24T04:37:33;3.20;;;0.70;;
71606;SDS011;60641;53.556;9.914;2023-04-24T04:40:00;1.90;;;0.80;;
71606;SDS011;60641;53.556;9.914;2023-04-24T04:42:27;1.70;;;0.70;;
71606;SDS011;60641;53.556;9.914;2023-04-24T04:44:54;3.00;;;0.80;;
71606;SDS011;60641;53.556;9.914;2023-04-24T04:47:22;3.00;;;0.60;;
71606;SDS011;60641;53.556;9.914;2023-04-24T04:49:49;4.00;;;0.60;;
71606;SDS011;60641;53.556;9.914;2023-04-24T04:52:18;3.00;;;0.70;;
71606;SDS011;60641;53.556;9.914;2023-04-24T04:54:45;2.40;;;0.90;;
71606;SDS011;60641;53.556;9.914;2023-04-24T04:57:12;2.90;;;0.80;;
71606;SDS011;60641;53.556;9.914;2023-04-24T04:59:39;2.30;;;0.80;;
71606;SDS011;60641;53.556;9.914;2023-04-24T05:02:07;3.00;;;0.70;;
71606;SDS011;60641;53.556;9.914;2023-04-24T05:04:34;2.70;;;0.80;;
71606;SDS011;60641;53.556;9.914;2023-04-24T05:07:00;5.50;;;1.20;;
71606;SDS011;60641;53.556;9.914;2023-04-24T05:09:27;5.00;;;1.30;;
71606;SDS011;60641;53.556;9.914;2023-04-24T05:11:55;5.40;;;1.10;;
71606;SDS011;60641;53.556;9.914;2023-04-24T05:14:22;3.90;;;0.90;;
71606;SDS011;60641;53.556;9.914;2023-04-24T05:16:48;4.20;;;1.20;;
71606;SDS011;60641;53.556;9.914;2023-04-24T05:19:15;4.20;;;0.90;;
71606;SDS011;60641;53.556;9.914;2023-04-24T05:21:41;8.10;;;1.40;;
71606;SDS011;60641;53.556;9.914;2023-04-24T05:24:08;4.50;;;1.10;;
71606;SDS011;60641;53.556;9.914;2023-04-24T05:26:34;6.80;;;1.30;;
71606;SDS011;60641;53.556;9.914;2023-04-24T05:29:02;8.00;;;1.80;;
71606;SDS011;60641;53.556;9.914;2023-04-24T05:31:28;5.00;;;1.20;;
71606;SDS011;60641;53.556;9.914;2023-04-24T05:33:55;5.00;;;1.00;;
71606;SDS011;60641;53.556;9.914;2023-04-24T05:36:21;4.20;;;1.10;;
71606;SDS011;60641;53.556;9.914;2023-04-24T05:38:48;3.60;;;1.00;;
71606;SDS011;60641;53.556;9.914;2023-04-24T05:41:14;5.00;;;1.00;;
71606;SDS011;60641;53.556;9.914;2023-04-24T05:43:41;6.40;;;1.10;;
71606;SDS011;60641;53.556;9.914;2023-04-24T05:46:07;3.10;;;0.80;;
71606;SDS011;60641;53.556;9.914;2023-04-24T05:48:34;4.00;;;0.70;;
71606;SDS011;60641;53.556;9.914;2023-04-24T05:51:00;3.30;;;0.70;;
71606;SDS011;60641;53.556;9.914;2023-04-24T05:53:27;4.10;;;0.70;;
71606;SDS011;60641;53.556;9.914;2023-04-24T05:55:53;3.10;;;0.80;;
71606;SDS011;60641;53.556;9.914;2023-04-24T05:58:19;2.40;;;0.80;;
71606;SDS011;60641;53.556;9.914;2023-04-24T06:00:46;1.60;;;0.70;;
71606;SDS011;60641;53.556;9.914;2023-04-24T06:03:13;2.80;;;0.70;;
71606;SDS011;60641;53.556;9.914;2023-04-24T06:05:39;2.40;;;0.80;;
71606;SDS011;60641;53.556;9.914;2023-04-24T06:08:06;4.00;;;0.90;;
71606;SDS011;60641;53.556;9.914;2023-04-24T06:10:35;4.00;;;1.30;;
71606;SDS011;60641;53.556;9.914;2023-04-24T06:13:02;2.60;;;0.90;;
71606;SDS011;60641;53.556;9.914;2023-04-24T06:15:29;5.40;;;1.10;;
71606;SDS011;60641;53.556;9.914;2023-04-24T06:17:58;2.80;;;1.00;;
71606;SDS011;60641;53.556;9.914;2023-04-24T06:20:25;3.80;;;1.00;;
71606;SDS011;60641;53.556;9.914;2023-04-24T06:22:51;5.30;;;1.10;;
71606;SDS011;60641;53.556;9.914;2023-04-24T06:25:18;2.30;;;0.80;;
71606;SDS011;60641;53.556;9.914;2023-04-24T06:27:45;2.70;;;1.00;;
71606;SDS011;60641;53.556;9.914;2023-04-24T06:30:12;2.80;;;0.90;;
71606;SDS011;60641;53.556;9.914;2023-04-24T06:32:39;3.20;;;1.00;;
71606;SDS011;60641;53.556;9.914;2023-04-24T06:35:06;2.60;;;1.00;;
71606;SDS011;60641;53.556;9.914;2023-04-24T06:37:34;2.50;;;0.90;;
71606;SDS011;60641;53.556;9.914;2023-04-24T06:40:00;2.40;;;1.00;;
71606;SDS011;60641;53.556;9.914;2023-04-24T06:42:27;3.90;;;1.00;;
71606;SDS011;60641;53.556;9.914;2023-04-24T06:44:53;4.80;;;1.20;;
71606;SDS011;60641;53.556;9.914;2023-04-24T06:47:20;3.50;;;1.00;;
71606;SDS011;60641;53.556;9.914;2023-04-24T06:49:46;3.20;;;1.20;;
71606;SDS011;60641;53.556;9.914;2023-04-24T06:52:13;3.20;;;1.00;;
71606;SDS011;60641;53.556;9.914;2023-04-24T06:54:41;4.50;;;1.10;;
71606;SDS011;60641;53.556;9.914;2023-04-24T06:57:08;2.60;;;1.00;;
71606;SDS011;60641;53.556;9.914;2023-04-24T06:59:34;3.80;;;1.20;;
71606;SDS011;60641;53.556;9.914;2023-04-24T07:02:01;4.30;;;1.20;;
71606;SDS011;60641;53.556;9.914;2023-04-24T07:04:28;2.90;;;1.20;;
71606;SDS011;60641;53.556;9.914;2023-04-24T07:06:54;2.80;;;1.10;;
71606;SDS011;60641;53.556;9.914;2023-04-24T07:09:24;2.90;;;1.20;;
71606;SDS011;60641;53.556;9.914;2023-04-24T07:11:51;3.70;;;1.20;;
71606;SDS011;60641;53.556;9.914;2023-04-24T07:14:19;5.90;;;1.40;;
71606;SDS011;60641;53.556;9.914;2023-04-24T07:16:46;3.00;;;1.40;;
71606;SDS011;60641;53.556;9.914;2023-04-24T07:19:13;3.80;;;1.50;;
71606;SDS011;60641;53.556;9.914;2023-04-24T07:21:39;4.20;;;1.50;;
71606;SDS011;60641;53.556;9.914;2023-04-24T07:24:06;5.20;;;1.90;;
71606;SDS011;60641;53.556;9.914;2023-04-24T07:26:37;5.40;;;1.60;;
71606;SDS011;60641;53.556;9.914;2023-04-24T07:29:04;4.00;;;1.60;;
71606;SDS011;60641;53.556;9.914;2023-04-24T07:31:31;4.30;;;1.70;;
71606;SDS011;60641;53.556;9.914;2023-04-24T07:33:57;6.40;;;2.70;;
71606;SDS011;60641;53.556;9.914;2023-04-24T07:36:24;5.90;;;2.00;;
71606;SDS011;60641;53.556;9.914;2023-04-24T07:38:52;4.30;;;1.60;;
71606;SDS011;60641;53.556;9.914;2023-04-24T07:41:19;5.30;;;2.00;;
71606;SDS011;60641;53.556;9.914;2023-04-24T07:43:46;5.20;;;1.90;;
71606;SDS011;60641;53.556;9.914;2023-04-24T07:46:13;5.20;;;2.40;;
71606;SDS011;60641;53.556;9.914;2023-04-24T07:48:39;7.30;;;2.10;;
71606;SDS011;60641;53.556;9.914;2023-04-24T07:51:05;4.70;;;2.10;;
71606;SDS011;60641;53.556;9.914;2023-04-24T07:53:32;5.80;;;2.20;;
71606;SDS011;60641;53.556;9.914;2023-04-24T07:55:58;4.90;;;2.30;;
71606;SDS011;60641;53.556;9.914;2023-04-24T07:58:25;7.30;;;2.30;;
71606;SDS011;60641;53.556;9.914;2023-04-24T08:00:52;5.60;;;2.10;;
71606;SDS011;60641;53.556;9.914;2023-04-24T08:03:18;6.10;;;2.50;;
71606;SDS011;60641;53.556;9.914;2023-04-24T08:05:45;8.50;;;2.90;;
71606;SDS011;60641;53.556;9.914;2023-04-24T08:08:12;7.00;;;2.80;;
71606;SDS011;60641;53.556;9.914;2023-04-24T08:10:39;8.30;;;3.10;;
71606;SDS011;60641;53.556;9.914;2023-04-24T08:13:05;7.70;;;3.10;;
71606;SDS011;60641;53.556;9.914;2023-04-24T08:15:32;5.60;;;2.30;;
71606;SDS011;60641;53.556;9.914;2023-04-24T08:17:58;5.80;;;2.70;;
71606;SDS011;60641;53.556;9.914;2023-04-24T08:20:25;11.60;;;3.70;;
71606;SDS011;60641;53.556;9.914;2023-04-24T08:22:51;7.60;;;2.60;;
71606;SDS011;60641;53.556;9.914;2023-04-24T08:25:18;7.90;;;2.90;;
71606;SDS011;60641;53.556;9.914;2023-04-24T08:27:45;6.90;;;2.80;;
71606;SDS011;60641;53.556;9.914;2023-04-24T08:30:11;18.20;;;4.90;;
71606;SDS011;60641;53.556;9.914;2023-04-24T08:32:38;10.90;;;3.20;;
71606;SDS011;60641;53.556;9.914;2023-04-24T08:35:05;21.40;;;5.00;;
71606;SDS011;60641;53.556;9.914;2023-04-24T08:37:32;15.90;;;3.80;;
71606;SDS011;60641;53.556;9.914;2023-04-24T08:39:58;11.30;;;2.90;;
71606;SDS011;60641;53.556;9.914;2023-04-24T08:42:25;8.70;;;3.20;;
71606;SDS011;60641;53.556;9.914;2023-04-24T08:44:54;6.30;;;2.50;;
71606;SDS011;60641;53.556;9.914;2023-04-24T08:47:21;11.50;;;3.30;;
71606;SDS011;60641;53.556;9.914;2023-04-24T08:49:48;8.00;;;3.20;;
71606;SDS011;60641;53.556;9.914;2023-04-24T08:52:16;6.40;;;2.90;;
71606;SDS011;60641;53.556;9.914;2023-04-24T08:54:44;6.50;;;3.00;;
71606;SDS011;60641;53.556;9.914;2023-04-24T08:57:12;6.80;;;3.20;;
71606;SDS011;60641;53.556;9.914;2023-04-24T08:59:40;7.00;;;3.10;;
71606;SDS011;60641;53.556;9.914;2023-04-24T09:02:10;7.70;;;3.10;;
71606;SDS011;60641;53.556;9.914;2023-04-24T09:04:37;6.80;;;3.10;;
71606;SDS011;60641;53.556;9.914;2023-04-24T09:07:04;7.80;;;3.40;;
71606;SDS011;60641;53.556;9.914;2023-04-24T09:09:32;7.10;;;3.20;;
71606;SDS011;60641;53.556;9.914;2023-04-24T09:11:59;15.40;;;3.50;;
71606;SDS011;60641;53.556;9.914;2023-04-24T09:14:26;6.00;;;3.00;;
71606;SDS011;60641;53.556;9.914;2023-04-24T09:16:54;6.10;;;2.80;;
71606;SDS011;60641;53.556;9.914;2023-04-24T09:19:20;8.50;;;3.10;;
71606;SDS011;60641;53.556;9.914;2023-04-24T09:21:48;9.00;;;3.20;;
71606;SDS011;60641;53.556;9.914;2023-04-24T09:24:17;7.40;;;3.30;;
71606;SDS011;60641;53.556;9.914;2023-04-24T09:26:46;8.80;;;3.20;;
71606;SDS011;60641;53.556;9.914;2023-04-24T09:29:15;6.50;;;3.00;;
71606;SDS011;60641;53.556;9.914;2023-04-24T09:31:43;6.10;;;2.90;;
71606;SDS011;60641;53.556;9.914;2023-04-24T09:34:11;7.10;;;3.10;;
71606;SDS011;60641;53.556;9.914;2023-04-24T09:36:38;7.50;;;3.20;;
71606;SDS011;60641;53.556;9.914;2023-04-24T09:39:10;7.10;;;3.20;;
71606;SDS011;60641;53.556;9.914;2023-04-24T09:41:43;7.00;;;3.20;;
71606;SDS011;60641;53.556;9.914;2023-04-24T09:44:15;6.70;;;3.20;;
71606;SDS011;60641;53.556;9.914;2023-04-24T09:46:49;8.70;;;3.40;;
71606;SDS011;60641;53.556;9.914;2023-04-24T09:49:23;6.60;;;3.20;;
71606;SDS011;60641;53.556;9.914;2023-04-24T09:51:50;7.40;;;3.70;;
71606;SDS011;60641;53.556;9.914;2023-04-24T09:54:17;8.90;;;3.80;;
71606;SDS011;60641;53.556;9.914;2023-04-24T09:56:47;11.20;;;3.80;;
71606;SDS011;60641;53.556;9.914;2023-04-24T09:59:16;7.80;;;3.50;;
71606;SDS011;60641;53.556;9.914;2023-04-24T10:01:44;6.70;;;3.40;;
71606;SDS011;60641;53.556;9.914;2023-04-24T10:04:29;7.60;;;4.00;;
71606;SDS011;60641;53.556;9.914;2023-04-24T10:06:56;9.10;;;4.20;;
71606;SDS011;60641;53.556;9.914;2023-04-24T10:09:23;8.30;;;4.10;;
71606;SDS011;60641;53.556;9.914;2023-04-24T10:11:51;8.30;;;4.30;;
71606;SDS011;60641;53.556;9.914;2023-04-24T10:14:21;8.60;;;4.20;;
71606;SDS011;60641;53.556;9.914;2023-04-24T10:16:49;9.00;;;4.60;;
71606;SDS011;60641;53.556;9.914;2023-04-24T10:19:16;8.70;;;4.50;;
71606;SDS011;60641;53.556;9.914;2023-04-24T10:21:44;9.50;;;4.60;;
71606;SDS011;60641;53.556;9.914;2023-04-24T10:24:15;10.20;;;4.80;;
71606;SDS011;60641;53.556;9.914;2023-04-24T10:26:42;10.30;;;4.90;;
71606;SDS011;60641;53.556;9.914;2023-04-24T10:29:10;10.10;;;4.90;;
71606;SDS011;60641;53.556;9.914;2023-04-24T10:31:39;10.50;;;4.70;;
71606;SDS011;60641;53.556;9.914;2023-04-24T10:34:06;10.40;;;4.70;;
71606;SDS011;60641;53.556;9.914;2023-04-24T10:36:33;10.50;;;5.30;;
71606;SDS011;60641;53.556;9.914;2023-04-24T10:39:02;12.00;;;5.20;;
71606;SDS011;60641;53.556;9.914;2023-04-24T10:41:30;11.20;;;5.40;;
71606;SDS011;60641;53.556;9.914;2023-04-24T10:46:39;11.70;;;5.00;;
71606;SDS011;60641;53.556;9.914;2023-04-24T10:49:09;10.30;;;5.30;;
71606;SDS011;60641;53.556;9.914;2023-04-24T10:51:46;8.40;;;4.90;;
71606;SDS011;60641;53.556;9.914;2023-04-24T10:59:46;9.20;;;5.40;;
71606;SDS011;60641;53.556;9.914;2023-04-24T11:02:16;10.90;;;5.60;;
71606;SDS011;60641;53.556;9.914;2023-04-24T11:04:43;10.20;;;5.40;;
71606;SDS011;60641;53.556;9.914;2023-04-24T11:07:11;9.80;;;4.70;;
71606;SDS011;60641;53.556;9.914;2023-04-24T11:09:37;11.20;;;5.30;;
71606;SDS011;60641;53.556;9.914;2023-04-24T11:12:07;11.10;;;5.60;;
71606;SDS011;60641;53.556;9.914;2023-04-24T11:17:32;10.90;;;5.30;;
71606;SDS011;60641;53.556;9.914;2023-04-24T11:22:37;11.40;;;4.80;;
71606;SDS011;60641;53.556;9.914;2023-04-24T11:25:06;10.30;;;5.20;;
71606;SDS011;60641;53.556;9.914;2023-04-24T11:27:40;9.10;;;4.90;;
71606;SDS011;60641;53.556;9.914;2023-04-24T11:30:09;12.00;;;5.10;;
71606;SDS011;60641;53.556;9.914;2023-04-24T11:32:37;10.20;;;5.10;;
71606;SDS011;60641;53.556;9.914;2023-04-24T11:37:56;9.70;;;4.60;;
71606;SDS011;60641;53.556;9.914;2023-04-24T11:40:22;9.50;;;5.20;;
71606;SDS011;60641;53.556;9.914;2023-04-24T11:42:50;11.00;;;4.80;;
71606;SDS011;60641;53.556;9.914;2023-04-24T11:45:18;9.80;;;5.30;;
71606;SDS011;60641;53.556;9.914;2023-04-24T11:47:49;9.00;;;4.70;;
71606;SDS011;60641;53.556;9.914;2023-04-24T11:50:16;9.80;;;5.10;;
71606;SDS011;60641;53.556;9.914;2023-04-24T11:52:44;12.80;;;5.00;;
71606;SDS011;60641;53.556;9.914;2023-04-24T11:57:47;11.40;;;4.80;;
71606;SDS011;60641;53.556;9.914;2023-04-24T12:00:16;8.10;;;3.80;;
71606;SDS011;60641;53.556;9.914;2023-04-24T12:02:43;9.60;;;3.70;;
71606;SDS011;60641;53.556;9.914;2023-04-24T12:08:06;9.10;;;3.80;;
71606;SDS011;60641;53.556;9.914;2023-04-24T12:10:33;8.30;;;3.90;;
71606;SDS011;60641;53.556;9.914;2023-04-24T12:13:02;8.30;;;4.00;;
71606;SDS011;60641;53.556;9.914;2023-04-24T12:15:28;8.00;;;3.50;;
71606;SDS011;60641;53.556;9.914;2023-04-24T12:17:55;9.00;;;3.60;;
71606;SDS011;60641;53.556;9.914;2023-04-24T12:20:26;8.60;;;3.90;;
71606;SDS011;60641;53.556;9.914;2023-04-24T12:22:56;9.70;;;3.90;;
71606;SDS011;60641;53.556;9.914;2023-04-24T12:25:27;8.50;;;3.80;;
71606;SDS011;60641;53.556;9.914;2023-04-24T12:30:34;7.20;;;3.80;;
71606;SDS011;60641;53.556;9.914;2023-04-24T12:33:04;10.30;;;4.10;;
71606;SDS011;60641;53.556;9.914;2023-04-24T12:35:32;16.70;;;4.20;;
71606;SDS011;60641;53.556;9.914;2023-04-24T12:38:09;7.80;;;3.90;;
71606;SDS011;60641;53.556;9.914;2023-04-24T12:40:36;7.90;;;3.70;;
71606;SDS011;60641;53.556;9.914;2023-04-24T12:43:12;8.00;;;3.90;;
71606;SDS011;60641;53.556;9.914;2023-04-24T12:45:42;8.30;;;4.30;;
71606;SDS011;60641;53.556;9.914;2023-04-24T12:48:09;6.70;;;3.60;;
71606;SDS011;60641;53.556;9.914;2023-04-24T12:50:35;7.20;;;3.60;;
71606;SDS011;60641;53.556;9.914;2023-04-24T12:53:02;8.10;;;4.20;;
71606;SDS011;60641;53.556;9.914;2023-04-24T12:55:28;7.50;;;3.90;;
71606;SDS011;60641;53.556;9.914;2023-04-24T12:57:55;7.30;;;3.60;;
71606;SDS011;60641;53.556;9.914;2023-04-24T13:00:22;8.20;;;3.80;;
71606;SDS011;60641;53.556;9.914;2023-04-24T13:02:48;7.20;;;3.50;;
71606;SDS011;60641;53.556;9.914;2023-04-24T13:05:15;7.40;;;3.90;;
71606;SDS011;60641;53.556;9.914;2023-04-24T13:07:42;7.30;;;3.30;;
71606;SDS011;60641;53.556;9.914;2023-04-24T13:10:09;8.10;;;3.40;;
71606;SDS011;60641;53.556;9.914;2023-04-24T13:12:36;7.30;;;3.50;;
71606;SDS011;60641;53.556;9.914;2023-04-24T13:15:03;7.70;;;3.40;;
71606;SDS011;60641;53.556;9.914;2023-04-24T13:17:31;6.80;;;3.40;;
71606;SDS011;60641;53.556;9.914;2023-04-24T13:19:57;7.10;;;3.10;;
71606;SDS011;60641;53.556;9.914;2023-04-24T13:22:24;7.60;;;3.30;;
71606;SDS011;60641;53.556;9.914;2023-04-24T13:24:51;7.00;;;3.20;;
71606;SDS011;60641;53.556;9.914;2023-04-24T13:27:17;7.60;;;3.40;;
71606;SDS011;60641;53.556;9.914;2023-04-24T13:29:44;7.10;;;3.20;;
71606;SDS011;60641;53.556;9.914;2023-04-24T13:32:11;7.30;;;2.90;;
71606;SDS011;60641;53.556;9.914;2023-04-24T13:34:38;6.70;;;3.00;;
71606;SDS011;60641;53.556;9.914;2023-04-24T13:37:04;6.40;;;3.10;;
71606;SDS011;60641;53.556;9.914;2023-04-24T13:39:31;6.80;;;3.20;;
71606;SDS011;60641;53.556;9.914;2023-04-24T13:41:58;7.50;;;3.30;;
71606;SDS011;60641;53.556;9.914;2023-04-24T13:44:25;7.30;;;3.20;;
71606;SDS011;60641;53.556;9.914;2023-04-24T13:46:52;7.40;;;3.20;;
71606;SDS011;60641;53.556;9.914;2023-04-24T13:49:20;8.70;;;3.20;;
71606;SDS011;60641;53.556;9.914;2023-04-24T13:51:47;8.30;;;3.30;;
71606;SDS011;60641;53.556;9.914;2023-04-24T13:54:14;6.90;;;3.00;;
71606;SDS011;60641;53.556;9.914;2023-04-24T13:56:40;8.50;;;3.30;;
71606;SDS011;60641;53.556;9.914;2023-04-24T13:59:07;8.30;;;3.70;;
71606;SDS011;60641;53.556;9.914;2023-04-24T14:01:33;7.20;;;3.10;;
71606;SDS011;60641;53.556;9.914;2023-04-24T14:04:00;6.20;;;2.70;;
71606;SDS011;60641;53.556;9.914;2023-04-24T14:06:27;6.20;;;2.60;;
71606;SDS011;60641;53.556;9.914;2023-04-24T14:08:53;6.90;;;2.70;;
71606;SDS011;60641;53.556;9.914;2023-04-24T14:11:20;6.60;;;2.50;;
71606;SDS011;60641;53.556;9.914;2023-04-24T14:13:46;6.00;;;2.80;;
71606;SDS011;60641;53.556;9.914;2023-04-24T14:16:13;5.80;;;2.70;;
71606;SDS011;60641;53.556;9.914;2023-04-24T14:18:40;6.20;;;2.60;;
71606;SDS011;60641;53.556;9.914;2023-04-24T14:21:07;5.90;;;2.80;;
71606;SDS011;60641;53.556;9.914;2023-04-24T14:23:33;6.20;;;2.80;;
71606;SDS011;60641;53.556;9.914;2023-04-24T14:26:00;6.20;;;2.80;;
71606;SDS011;60641;53.556;9.914;2023-04-24T14:28:27;7.10;;;2.90;;
71606;SDS011;60641;53.556;9.914;2023-04-24T14:30:53;6.70;;;3.30;;
71606;SDS011;60641;53.556;9.914;2023-04-24T14:33:20;6.70;;;2.90;;
71606;SDS011;60641;53.556;9.914;2023-04-24T14:35:46;6.30;;;2.90;;
71606;SDS011;60641;53.556;9.914;2023-04-24T14:38:13;7.10;;;3.20;;
71606;SDS011;60641;53.556;9.914;2023-04-24T14:40:40;7.00;;;2.80;;
71606;SDS011;60641;53.556;9.914;2023-04-24T14:43:06;8.40;;;3.10;;
71606;SDS011;60641;53.556;9.914;2023-04-24T14:45:33;6.10;;;2.70;;
71606;SDS011;60641;53.556;9.914;2023-04-24T14:47:59;6.40;;;3.00;;
71606;SDS011;60641;53.556;9.914;2023-04-24T14:50:26;6.50;;;2.90;;
71606;SDS011;60641;53.556;9.914;2023-04-24T14:52:55;7.90;;;3.20;;
71606;SDS011;60641;53.556;9.914;2023-04-24T14:55:25;6.60;;;3.30;;
71606;SDS011;60641;53.556;9.914;2023-04-24T14:57:52;8.40;;;3.60;;
71606;SDS011;60641;53.556;9.914;2023-04-24T15:00:19;7.10;;;3.50;;
71606;SDS011;60641;53.556;9.914;2023-04-24T15:02:46;7.50;;;3.40;;
71606;SDS011;60641;53.556;9.914;2023-04-24T15:05:12;6.50;;;3.30;;
71606;SDS011;60641;53.556;9.914;2023-04-24T15:07:39;6.60;;;3.50;;
71606;SDS011;60641;53.556;9.914;2023-04-24T15:10:07;6.80;;;3.60;;